Time;durP1;ratioP1;P1;durP2;ratioP2;P2;SDS_P1;SDS_P2;PMS_P1;PMS_P2;Temp;Humidity;BMP_temperature;BMP_pressure;BME280_temperature;BME280_humidity;BME280_pressure;Samples;Min_cycle;Max_cycle;Signal;HPM_P1;HPM_P2
2023/08/27 07:09:17;;;;;;;;;;;21.20;99.90;;;;;;4568298;19;19925;-60
2023/08/27 07:10:52;;;;;;;;;;;21.30;99.90;;;;;;4592577;19;19990;-60
2023/08/27 07:12:26;;;;;;;;;;;21.30;99.90;;;;;;4592754;19;19910;-60
2023/08/27 07:13:59;;;;;;;;;;;21.30;99.90;;;;;;4592779;19;20210;-60
2023/08/27 07:15:36;;;;;;;;;;;21.30;99.90;;;;;;4592680;19;20219;-60
2023/08/27 07:17:10;;;;;;;;;;;21.30;99.90;;;;;;4592643;19;20232;-60
2023/08/27 07:18:45;;;;;;;;;;;21.30;99.90;;;;;;4592215;19;19914;-60
2023/08/27 07:20:21;;;;;;;;;;;21.30;99.90;;;;;;4592935;19;20315;-60
2023/08/27 07:21:54;;;;;;;;;;;21.40;99.90;;;;;;4592551;19;19922;-60
2023/08/27 07:23:28;;;;;;;;;;;21.40;99.90;;;;;;4590030;19;19917;-60
2023/08/27 07:25:05;;;;;;;;;;;21.40;99.90;;;;;;4592083;19;19919;-59
2023/08/27 07:26:39;;;;;;;;;;;21.40;99.90;;;;;;4592440;19;19911;-60
2023/08/27 07:28:12;;;;;;;;;;;21.40;99.90;;;;;;4592421;19;19923;-61
2023/08/27 07:29:47;;;;;;;;;;;21.40;99.90;;;;;;4591283;19;19919;-61
2023/08/27 07:31:21;;;;;;;;;;;21.40;99.90;;;;;;4592573;19;19978;-61
2023/08/27 07:32:56;;;;;;;;;;;21.40;99.90;;;;;;4591975;19;19915;-61
2023/08/27 07:34:31;;;;;;;;;;;21.40;99.90;;;;;;4592364;19;19923;-61
2023/08/27 07:36:05;;;;;;;;;;;21.40;99.90;;;;;;4592217;19;20294;-61
2023/08/27 07:37:38;;;;;;;;;;;21.40;99.90;;;;;;4592026;19;19931;-61
2023/08/27 07:39:14;;;;;;;;;;;21.40;99.90;;;;;;4591537;19;20315;-60
2023/08/27 07:40:50;;;;;;;;;;;21.30;99.90;;;;;;4592579;19;19921;-60
2023/08/27 07:42:23;;;;;;;;;;;21.30;99.90;;;;;;4592201;19;19971;-60
2023/08/27 07:43:58;;;;;;;;;;;21.30;99.90;;;;;;4593221;19;19929;-61
2023/08/27 07:45:32;;;;;;;;;;;21.30;99.90;;;;;;4596629;19;19925;-60
2023/08/27 07:47:06;;;;;;;;;;;21.30;99.90;;;;;;4596749;19;19915;-61
2023/08/27 07:48:40;;;;;;;;;;;21.30;99.90;;;;;;4596091;19;20231;-60
2023/08/27 07:50:15;;;;;;;;;;;21.30;99.90;;;;;;4596626;19;19974;-60
2023/08/27 07:51:48;;;;;;;;;;;21.30;99.90;;;;;;4596478;19;20299;-60
2023/08/27 07:53:23;;;;;;;;;;;21.30;99.90;;;;;;4595477;19;19922;-60
2023/08/27 07:54:57;;;;;;;;;;;21.30;99.90;;;;;;4596318;19;19914;-60
2023/08/27 07:56:30;;;;;;;;;;;21.30;99.90;;;;;;4596742;19;19922;-61
2023/08/27 07:58:05;;;;;;;;;;;21.30;99.90;;;;;;4596560;19;19911;-60
2023/08/27 07:59:38;;;;;;;;;;;21.30;99.90;;;;;;4594273;19;19949;-60
2023/08/27 08:01:11;;;;;;;;;;;21.30;99.90;;;;;;4596877;19;19952;-60
2023/08/27 08:02:46;;;;;;;;;;;21.30;99.90;;;;;;4596008;19;19996;-60
2023/08/27 08:04:19;;;;;;;;;;;21.30;99.90;;;;;;4596806;19;19915;-60
2023/08/27 08:05:53;;;;;;;;;;;21.40;99.90;;;;;;4596760;19;19914;-60
2023/08/27 08:07:28;;;;;;;;;;;21.40;99.90;;;;;;4596785;19;20368;-60
2023/08/27 08:09:02;;;;;;;;;;;21.40;99.90;;;;;;4595758;19;19919;-60
2023/08/27 08:10:35;;;;;;;;;;;21.40;99.90;;;;;;4596748;19;19982;-60
2023/08/27 08:12:09;;;;;;;;;;;21.40;99.90;;;;;;4596691;19;20003;-60
2023/08/27 08:13:45;;;;;;;;;;;21.40;99.90;;;;;;4596643;19;20204;-60
2023/08/27 08:15:19;;;;;;;;;;;21.40;99.90;;;;;;4595310;19;19915;-60
2023/08/27 08:16:53;;;;;;;;;;;21.40;99.90;;;;;;4596300;19;19979;-60
2023/08/27 08:18:27;;;;;;;;;;;21.40;99.90;;;;;;4596406;19;20219;-60
2023/08/27 08:20:02;;;;;;;;;;;21.40;99.90;;;;;;4596527;19;19975;-60
2023/08/27 08:21:36;;;;;;;;;;;21.50;99.90;;;;;;4596474;19;19915;-60
2023/08/27 08:23:11;;;;;;;;;;;21.50;99.90;;;;;;4595084;19;19933;-60
2023/08/27 08:24:44;;;;;;;;;;;21.50;99.90;;;;;;4596451;19;19970;-60
2023/08/27 08:26:19;;;;;;;;;;;21.60;99.90;;;;;;4596428;19;19922;-60
2023/08/27 08:27:54;;;;;;;;;;;21.50;99.90;;;;;;4596328;19;19922;-60
2023/08/27 08:29:27;;;;;;;;;;;21.60;99.90;;;;;;4595110;19;19911;-60
2023/08/27 08:31:01;;;;;;;;;;;21.60;99.90;;;;;;4595751;19;20017;-60
2023/08/27 08:32:36;;;;;;;;;;;21.50;99.90;;;;;;4596140;19;19911;-60
2023/08/27 08:34:17;;;;;;;;;;;21.60;99.90;;;;;;4595848;19;19919;-60
2023/08/27 08:36:01;;;;;;;;;;;21.60;99.90;;;;;;4593764;19;19999;-60
2023/08/27 08:37:54;;;;;;;;;;;21.60;99.90;;;;;;4591676;19;19926;-60
2023/08/27 08:39:33;;;;;;;;;;;21.60;99.90;;;;;;4591663;19;19915;-60
2023/08/27 08:41:10;;;;;;;;;;;21.70;99.90;;;;;;4594471;19;19925;-60
2023/08/27 08:42:45;;;;;;;;;;;21.70;99.90;;;;;;4589402;19;19923;-60
2023/08/27 08:44:21;;;;;;;;;;;21.70;99.90;;;;;;4589419;19;19918;-60
2023/08/27 08:45:58;;;;;;;;;;;21.70;99.90;;;;;;4590854;19;19938;-60
2023/08/27 08:47:32;;;;;;;;;;;21.70;99.90;;;;;;4591084;19;19923;-60
2023/08/27 08:49:07;;;;;;;;;;;21.70;99.90;;;;;;4590489;19;19982;-60
2023/08/27 08:50:41;;;;;;;;;;;21.70;99.90;;;;;;4590928;19;19927;-60
2023/08/27 08:52:17;;;;;;;;;;;21.70;99.90;;;;;;4590892;19;19923;-60
2023/08/27 08:53:53;;;;;;;;;;;21.70;99.90;;;;;;4590977;19;19986;-60
2023/08/27 08:55:26;;;;;;;;;;;21.70;99.90;;;;;;4590033;19;19919;-60
2023/08/27 08:57:00;;;;;;;;;;;21.70;99.90;;;;;;4590590;19;19915;-60
2023/08/27 08:58:35;;;;;;;;;;;21.70;99.90;;;;;;4593261;19;19922;-60
2023/08/27 09:00:10;;;;;;;;;;;21.70;99.90;;;;;;4593498;19;20306;-60
2023/08/27 09:01:46;;;;;;;;;;;21.70;99.90;;;;;;4593222;19;19932;-59
2023/08/27 09:03:20;;;;;;;;;;;21.70;99.90;;;;;;4591379;19;19922;-59
2023/08/27 09:04:54;;;;;;;;;;;21.70;99.90;;;;;;4593100;19;19911;-60
2023/08/27 09:06:27;;;;;;;;;;;21.80;99.90;;;;;;4593461;19;20307;-60
2023/08/27 09:08:02;;;;;;;;;;;21.90;99.90;;;;;;4593328;19;19939;-60
2023/08/27 09:09:35;;;;;;;;;;;22.10;99.90;;;;;;4591922;19;19953;-60
2023/08/27 09:11:09;;;;;;;;;;;22.40;99.90;;;;;;4593341;19;19942;-60
2023/08/27 09:12:45;;;;;;;;;;;22.60;99.90;;;;;;4593335;19;19915;-60
2023/08/27 09:14:19;;;;;;;;;;;22.90;99.90;;;;;;4593260;19;19916;-60
2023/08/27 09:15:53;;;;;;;;;;;23.10;99.90;;;;;;4593234;19;19915;-60
2023/08/27 09:17:28;;;;;;;;;;;23.30;99.90;;;;;;4593168;19;19919;-60
2023/08/27 09:19:02;;;;;;;;;;;23.50;99.90;;;;;;4592480;19;19918;-60
2023/08/27 09:20:37;;;;;;;;;;;23.70;99.90;;;;;;4593180;19;19915;-60
2023/08/27 09:22:12;;;;;;;;;;;23.80;99.90;;;;;;4592890;19;19927;-60
2023/08/27 09:23:45;;;;;;;;;;;23.90;99.90;;;;;;4593032;19;19914;-60
2023/08/27 09:25:18;;;;;;;;;;;24.00;99.90;;;;;;4593048;19;19921;-60
2023/08/27 09:26:53;;;;;;;;;;;24.10;99.90;;;;;;4593011;19;19935;-60
2023/08/27 09:28:26;;;;;;;;;;;24.10;99.90;;;;;;4592803;19;19913;-60
2023/08/27 09:30:00;;;;;;;;;;;24.20;99.90;;;;;;4592982;19;20327;-60
2023/08/27 09:31:37;;;;;;;;;;;24.40;99.90;;;;;;4593030;19;19915;-60
2023/08/27 09:33:11;;;;;;;;;;;24.50;99.90;;;;;;4592839;19;20034;-60
2023/08/27 09:34:44;;;;;;;;;;;24.50;99.90;;;;;;4592854;19;19919;-60
2023/08/27 09:36:21;;;;;;;;;;;24.60;99.90;;;;;;4592766;19;19919;-60
2023/08/27 09:37:57;;;;;;;;;;;24.60;99.90;;;;;;4592733;19;20266;-60
2023/08/27 09:39:30;;;;;;;;;;;24.70;99.90;;;;;;4592075;19;19921;-60
2023/08/27 09:41:15;;;;;;;;;;;24.70;99.90;;;;;;4594867;19;19915;-60
2023/08/27 09:42:49;;;;;;;;;;;24.70;99.90;;;;;;4594068;19;19914;-60
2023/08/27 09:44:25;;;;;;;;;;;24.70;99.90;;;;;;4593487;19;19918;-60
2023/08/27 09:46:00;;;;;;;;;;;24.80;99.90;;;;;;4594497;19;19949;-60
2023/08/27 09:47:34;;;;;;;;;;;24.80;99.90;;;;;;4594683;19;19943;-60
2023/08/27 09:49:07;;;;;;;;;;;24.80;99.90;;;;;;4594023;19;19929;-60
2023/08/27 09:50:43;;;;;;;;;;;24.90;99.90;;;;;;4594641;19;19915;-60
2023/08/27 09:52:24;;;;;;;;;;;24.90;99.90;;;;;;4594628;19;20302;-60
2023/08/27 09:53:57;;;;;;;;;;;24.90;99.90;;;;;;4594582;19;19919;-60
2023/08/27 09:55:33;;;;;;;;;;;24.90;99.90;;;;;;4594528;19;19978;-60
2023/08/27 09:57:07;;;;;;;;;;;24.90;99.90;;;;;;4594626;19;19911;-60
2023/08/27 09:58:40;;;;;;;;;;;24.90;99.90;;;;;;4592835;19;20000;-60
2023/08/27 10:00:15;;;;;;;;;;;24.80;99.90;;;;;;4594076;19;19919;-60
2023/08/27 10:01:51;;;;;;;;;;;24.90;99.90;;;;;;4594356;19;19921;-60
2023/08/27 10:03:24;;;;;;;;;;;24.90;99.90;;;;;;4591928;19;20302;-60
2023/08/27 10:04:59;;;;;;;;;;;24.90;99.90;;;;;;4593967;19;19926;-60
2023/08/27 10:06:38;;;;;;;;;;;25.00;99.90;;;;;;4594259;19;20296;-60
2023/08/27 10:08:13;;;;;;;;;;;25.10;99.90;;;;;;4591838;19;19915;-60
2023/08/27 10:09:50;;;;;;;;;;;25.20;99.90;;;;;;4592861;19;19938;-61
2023/08/27 10:11:24;;;;;;;;;;;25.30;99.90;;;;;;4594319;19;19934;-60
2023/08/27 10:12:58;;;;;;;;;;;25.40;99.90;;;;;;4594178;19;20266;-61
2023/08/27 10:14:34;;;;;;;;;;;25.40;99.90;;;;;;4594184;19;20296;-60
2023/08/27 10:16:08;;;;;;;;;;;25.50;99.90;;;;;;4594118;19;19974;-60
2023/08/27 10:17:42;;;;;;;;;;;25.50;99.90;;;;;;4594114;19;19918;-62
2023/08/27 10:19:16;;;;;;;;;;;25.60;99.90;;;;;;4592047;19;19918;-61
2023/08/27 10:21:10;;;;;;;;;;;25.70;99.90;;;;;;4593686;19;19921;-61
2023/08/27 10:22:43;;;;;;;;;;;25.70;99.90;;;;;;4593438;19;19925;-60
2023/08/27 10:24:19;;;;;;;;;;;25.70;99.90;;;;;;4592651;19;19911;-60
2023/08/27 10:25:53;;;;;;;;;;;25.70;99.90;;;;;;4593574;19;19926;-61
2023/08/27 10:27:28;;;;;;;;;;;25.50;99.90;;;;;;4593905;19;19923;-60
2023/08/27 10:29:03;;;;;;;;;;;25.50;99.90;;;;;;4593333;19;19918;-61
2023/08/27 10:30:37;;;;;;;;;;;25.40;99.90;;;;;;4593906;19;19915;-60
2023/08/27 10:32:10;;;;;;;;;;;25.30;99.90;;;;;;4592513;19;20227;-60
2023/08/27 10:33:47;;;;;;;;;;;25.30;99.90;;;;;;4593539;19;19911;-60
2023/08/27 10:35:20;;;;;;;;;;;25.30;99.90;;;;;;4593721;19;19918;-60
2023/08/27 10:36:53;;;;;;;;;;;25.30;99.90;;;;;;4593746;19;19943;-60
2023/08/27 10:38:28;;;;;;;;;;;25.30;99.90;;;;;;4593549;19;20352;-60
2023/08/27 10:40:07;;;;;;;;;;;25.10;99.90;;;;;;4593651;19;19911;-60
2023/08/27 10:41:42;;;;;;;;;;;25.00;99.90;;;;;;4593677;19;19923;-60
2023/08/27 10:43:19;;;;;;;;;;;25.10;99.90;;;;;;4591419;19;19919;-60
2023/08/27 10:45:12;;;;;;;;;;;25.10;99.90;;;;;;4593244;19;19954;-60
2023/08/27 10:47:09;;;;;;;;;;;25.10;99.90;;;;;;4593530;19;19943;-61
2023/08/27 10:48:52;;;;;;;;;;;25.00;99.90;;;;;;4593275;19;19930;-61
2023/08/27 10:50:26;;;;;;;;;;;24.90;99.90;;;;;;4593427;19;20292;-60
2023/08/27 10:52:01;;;;;;;;;;;24.80;99.90;;;;;;4593412;19;20034;-60
2023/08/27 10:53:54;;;;;;;;;;;24.80;99.90;;;;;;4593489;19;19919;-60
2023/08/27 10:55:35;;;;;;;;;;;24.80;99.90;;;;;;4592150;19;19910;-60
2023/08/27 10:57:21;;;;;;;;;;;24.70;99.90;;;;;;4593101;19;19921;-61
2023/08/27 10:59:00;;;;;;;;;;;24.70;99.90;;;;;;4592846;19;19988;-61
2023/08/27 11:00:43;;;;;;;;;;;24.70;99.90;;;;;;4593269;19;19915;-61
2023/08/27 11:02:16;;;;;;;;;;;24.70;99.90;;;;;;4591870;19;19915;-60
2023/08/27 11:04:01;;;;;;;;;;;24.70;99.90;;;;;;4592891;19;19938;-60
2023/08/27 11:05:36;;;;;;;;;;;24.70;99.90;;;;;;4593217;19;19911;-61
2023/08/27 11:07:14;;;;;;;;;;;24.70;99.90;;;;;;4593158;19;19914;-61
2023/08/27 11:08:52;;;;;;;;;;;24.70;99.90;;;;;;4592531;19;19918;-61
2023/08/27 11:10:32;;;;;;;;;;;24.80;99.90;;;;;;4593225;19;19923;-60
2023/08/27 11:12:06;;;;;;;;;;;24.70;99.90;;;;;;4593124;19;19915;-60
2023/08/27 11:13:48;;;;;;;;;;;24.70;99.90;;;;;;4593060;19;19919;-61
2023/08/27 11:15:28;;;;;;;;;;;24.70;99.90;;;;;;4593075;19;19923;-61
2023/08/27 11:17:03;;;;;;;;;;;24.70;99.90;;;;;;4593068;19;19919;-61
2023/08/27 11:18:44;;;;;;;;;;;24.70;99.90;;;;;;4592131;19;19978;-61
2023/08/27 11:20:23;;;;;;;;;;;24.70;99.90;;;;;;4591673;19;20211;-61
2023/08/27 11:22:07;;;;;;;;;;;24.70;99.90;;;;;;4592647;19;20279;-61
2023/08/27 11:23:45;;;;;;;;;;;24.70;99.90;;;;;;4591986;19;19943;-60
2023/08/27 11:25:19;;;;;;;;;;;24.70;99.90;;;;;;4592824;19;19975;-60
2023/08/27 11:26:53;;;;;;;;;;;24.70;99.90;;;;;;4592841;19;19925;-60
2023/08/27 11:28:28;;;;;;;;;;;24.70;99.90;;;;;;4592634;19;19915;-60
2023/08/27 11:30:02;;;;;;;;;;;24.70;99.90;;;;;;4591431;19;19914;-60
2023/08/27 11:31:36;;;;;;;;;;;24.70;99.90;;;;;;4591388;19;19929;-61
2023/08/27 11:33:14;;;;;;;;;;;24.70;99.90;;;;;;4591453;19;19997;-61
2023/08/27 11:34:51;;;;;;;;;;;24.80;99.90;;;;;;4592442;19;19911;-60
2023/08/27 11:36:25;;;;;;;;;;;24.80;99.90;;;;;;4591444;19;19910;-60
2023/08/27 11:38:00;;;;;;;;;;;24.90;99.90;;;;;;4592264;19;20200;-61
2023/08/27 11:39:43;;;;;;;;;;;24.90;99.90;;;;;;4591683;19;19919;-61
2023/08/27 11:41:43;;;;;;;;;;;24.90;99.90;;;;;;4592617;19;19974;-60
2023/08/27 11:43:29;;;;;;;;;;;24.50;99.90;;;;;;4591720;19;19983;-60
2023/08/27 11:45:03;;;;;;;;;;;23.10;99.90;;;;;;4592604;19;20219;-60
2023/08/27 11:46:38;;;;;;;;;;;22.40;99.90;;;;;;4592497;19;20309;-60
2023/08/27 11:48:12;;;;;;;;;;;22.20;99.90;;;;;;4592485;19;19915;-60
2023/08/27 11:49:46;;;;;;;;;;;22.10;99.90;;;;;;4591616;19;19921;-60
2023/08/27 11:51:20;;;;;;;;;;;22.10;99.90;;;;;;4592398;19;19950;-60
2023/08/27 11:52:56;;;;;;;;;;;22.10;99.90;;;;;;4592397;19;19915;-61
2023/08/27 11:54:31;;;;;;;;;;;22.20;99.90;;;;;;4592285;19;19911;-61
2023/08/27 11:56:04;;;;;;;;;;;22.10;99.90;;;;;;4592315;19;19915;-60
2023/08/27 11:57:38;;;;;;;;;;;22.20;99.90;;;;;;4590955;19;19911;-60
2023/08/27 11:59:13;;;;;;;;;;;22.20;99.90;;;;;;4591168;19;19962;-61
2023/08/27 12:00:48;;;;;;;;;;;22.20;99.90;;;;;;4590978;19;19932;-61
2023/08/27 12:02:23;;;;;;;;;;;22.20;99.90;;;;;;4590740;19;19919;-60
2023/08/27 12:03:56;;;;;;;;;;;22.20;99.90;;;;;;4592009;19;19921;-61
2023/08/27 12:05:30;;;;;;;;;;;22.30;99.90;;;;;;4592170;19;19914;-61
2023/08/27 12:07:05;;;;;;;;;;;22.30;99.90;;;;;;4590830;19;19915;-60
2023/08/27 12:08:39;;;;;;;;;;;22.30;99.90;;;;;;4591202;19;19948;-62
2023/08/27 12:10:15;;;;;;;;;;;22.30;99.90;;;;;;4592160;19;19915;-61
2023/08/27 12:11:50;;;;;;;;;;;22.30;99.90;;;;;;4592144;19;19918;-61
2023/08/27 12:13:24;;;;;;;;;;;22.30;99.90;;;;;;4592056;19;19992;-60
2023/08/27 12:14:58;;;;;;;;;;;22.30;99.90;;;;;;4590765;19;19988;-61
2023/08/27 12:16:33;;;;;;;;;;;22.30;99.90;;;;;;4590681;19;19915;-61
2023/08/27 12:18:10;;;;;;;;;;;22.40;99.90;;;;;;4591683;19;19919;-61
2023/08/27 12:19:44;;;;;;;;;;;22.40;99.90;;;;;;4590705;19;19919;-61
2023/08/27 12:21:20;;;;;;;;;;;22.40;99.90;;;;;;4592225;19;19921;-60
2023/08/27 12:22:54;;;;;;;;;;;22.40;99.90;;;;;;4591226;19;19918;-60
2023/08/27 12:24:35;;;;;;;;;;;22.40;99.90;;;;;;4591880;19;19918;-60
2023/08/27 12:26:09;;;;;;;;;;;22.50;99.90;;;;;;4591819;19;19919;-61
2023/08/27 12:27:43;;;;;;;;;;;22.40;99.90;;;;;;4591775;19;20227;-60
2023/08/27 12:29:17;;;;;;;;;;;22.50;99.90;;;;;;4589634;19;19982;-61
2023/08/27 12:30:58;;;;;;;;;;;22.40;99.90;;;;;;4591002;19;19915;-60
2023/08/27 12:32:34;;;;;;;;;;;22.40;99.90;;;;;;4596214;19;20211;-61
2023/08/27 12:34:07;;;;;;;;;;;22.40;99.90;;;;;;4596244;19;19942;-61
2023/08/27 12:35:49;;;;;;;;;;;22.50;99.90;;;;;;4596221;19;20300;-61
2023/08/27 12:37:24;;;;;;;;;;;22.40;99.90;;;;;;4596166;19;19907;-60
2023/08/27 12:38:57;;;;;;;;;;;22.40;99.90;;;;;;4595489;19;20283;-60
2023/08/27 12:40:33;;;;;;;;;;;22.40;99.90;;;;;;4596145;19;19915;-60
2023/08/27 12:42:06;;;;;;;;;;;22.40;99.90;;;;;;4594798;19;19986;-60
2023/08/27 12:43:40;;;;;;;;;;;22.40;99.90;;;;;;4594110;19;19921;-60
2023/08/27 12:45:15;;;;;;;;;;;22.40;99.90;;;;;;4596105;19;19914;-60
2023/08/27 12:46:48;;;;;;;;;;;22.40;99.90;;;;;;4596047;19;19915;-61
2023/08/27 12:48:22;;;;;;;;;;;22.40;99.90;;;;;;4595995;19;19970;-60
2023/08/27 12:49:57;;;;;;;;;;;22.40;99.90;;;;;;4595943;19;19943;-60
2023/08/27 12:51:30;;;;;;;;;;;22.40;99.90;;;;;;4595958;19;19919;-61
2023/08/27 12:53:04;;;;;;;;;;;22.40;99.90;;;;;;4595919;19;19933;-60
2023/08/27 12:54:38;;;;;;;;;;;22.40;99.90;;;;;;4595863;19;19925;-60
2023/08/27 12:56:11;;;;;;;;;;;22.50;99.90;;;;;;4595855;19;19918;-60
2023/08/27 12:57:44;;;;;;;;;;;22.50;99.90;;;;;;4595775;19;19911;-61
2023/08/27 12:59:20;;;;;;;;;;;22.50;99.90;;;;;;4594734;19;19934;-60
2023/08/27 13:00:54;;;;;;;;;;;22.50;99.90;;;;;;4595691;19;19925;-61
2023/08/27 13:02:28;;;;;;;;;;;22.50;99.90;;;;;;4595541;19;19915;-61
2023/08/27 13:04:02;;;;;;;;;;;22.50;99.90;;;;;;4595709;19;19919;-60
2023/08/27 13:05:37;;;;;;;;;;;22.50;99.90;;;;;;4595651;19;20224;-61
2023/08/27 13:07:10;;;;;;;;;;;22.50;99.90;;;;;;4595622;19;19918;-60
2023/08/27 13:08:45;;;;;;;;;;;22.50;99.90;;;;;;4594867;19;20343;-61
2023/08/27 13:10:20;;;;;;;;;;;22.50;99.90;;;;;;4595583;19;19918;-61
2023/08/27 13:11:55;;;;;;;;;;;22.50;99.90;;;;;;4595477;19;19919;-60
2023/08/27 13:13:30;;;;;;;;;;;22.50;99.90;;;;;;4595559;19;19915;-60
2023/08/27 13:15:04;;;;;;;;;;;22.50;99.90;;;;;;4595438;19;19919;-61
2023/08/27 13:16:38;;;;;;;;;;;22.50;99.90;;;;;;4595323;19;19996;-60
2023/08/27 13:18:14;;;;;;;;;;;22.50;99.90;;;;;;4595436;19;19915;-60
2023/08/27 13:19:47;;;;;;;;;;;22.50;99.90;;;;;;4593954;19;20287;-60
2023/08/27 13:21:21;;;;;;;;;;;22.50;99.90;;;;;;4594001;19;19990;-60
2023/08/27 13:22:55;;;;;;;;;;;22.50;99.90;;;;;;4594212;19;19915;-60
2023/08/27 13:24:29;;;;;;;;;;;22.50;99.90;;;;;;4595270;19;19918;-60
2023/08/27 13:26:03;;;;;;;;;;;22.50;99.90;;;;;;4595210;19;19921;-60
2023/08/27 13:27:38;;;;;;;;;;;22.50;99.90;;;;;;4595817;19;19918;-60
2023/08/27 13:29:11;;;;;;;;;;;22.50;99.90;;;;;;4594320;19;19922;-61
2023/08/27 13:30:45;;;;;;;;;;;22.50;99.90;;;;;;4595116;19;20278;-60
2023/08/27 13:32:19;;;;;;;;;;;22.50;99.90;;;;;;4595070;19;19911;-60
2023/08/27 13:33:55;;;;;;;;;;;22.50;99.90;;;;;;4595156;19;19911;-60
2023/08/27 13:35:28;;;;;;;;;;;22.50;99.90;;;;;;4595014;19;20306;-60
2023/08/27 13:37:03;;;;;;;;;;;22.50;99.90;;;;;;4594978;19;19919;-60
2023/08/27 13:38:37;;;;;;;;;;;22.50;99.90;;;;;;4594645;19;19910;-60
2023/08/27 13:40:11;;;;;;;;;;;22.50;99.90;;;;;;4594931;19;19918;-60
2023/08/27 13:41:48;;;;;;;;;;;22.50;99.90;;;;;;4594568;19;19978;-61
2023/08/27 13:43:22;;;;;;;;;;;22.50;99.90;;;;;;4593854;19;19927;-60
2023/08/27 13:44:55;;;;;;;;;;;22.50;99.90;;;;;;4594841;19;20223;-60
2023/08/27 13:46:30;;;;;;;;;;;22.50;99.90;;;;;;4594815;19;19923;-60
2023/08/27 13:48:04;;;;;;;;;;;22.50;99.90;;;;;;4594737;19;20260;-60
2023/08/27 13:49:37;;;;;;;;;;;22.50;99.90;;;;;;4593923;19;20220;-60
2023/08/27 13:51:12;;;;;;;;;;;22.50;99.90;;;;;;4594685;19;20009;-60
2023/08/27 13:52:45;;;;;;;;;;;22.50;99.90;;;;;;4594654;19;20212;-60
2023/08/27 13:54:19;;;;;;;;;;;22.50;99.90;;;;;;4594637;19;20244;-60
2023/08/27 13:55:53;;;;;;;;;;;22.60;99.90;;;;;;4594583;19;19925;-60
2023/08/27 13:57:27;;;;;;;;;;;22.50;99.90;;;;;;4594564;19;19919;-60
2023/08/27 13:59:02;;;;;;;;;;;22.50;99.90;;;;;;4593898;19;19919;-60
2023/08/27 14:00:37;;;;;;;;;;;22.60;99.90;;;;;;4594562;19;19953;-60
2023/08/27 14:02:10;;;;;;;;;;;22.50;99.90;;;;;;4594494;19;19914;-60
2023/08/27 14:03:44;;;;;;;;;;;22.50;99.90;;;;;;4593542;19;20003;-60
2023/08/27 14:05:19;;;;;;;;;;;22.60;99.90;;;;;;4594400;19;19939;-60
2023/08/27 14:06:52;;;;;;;;;;;22.50;99.90;;;;;;4594352;19;20231;-60
2023/08/27 14:08:25;;;;;;;;;;;22.50;99.90;;;;;;4594172;19;19919;-60
2023/08/27 14:10:01;;;;;;;;;;;22.50;99.90;;;;;;4592865;19;19925;-61
2023/08/27 14:11:37;;;;;;;;;;;22.50;99.90;;;;;;4594286;19;20219;-60
2023/08/27 14:13:12;;;;;;;;;;;22.50;99.90;;;;;;4593034;19;19935;-61
2023/08/27 14:14:47;;;;;;;;;;;22.50;99.90;;;;;;4593853;19;19921;-61
2023/08/27 14:16:20;;;;;;;;;;;22.50;99.90;;;;;;4594180;19;19919;-60
2023/08/27 14:17:54;;;;;;;;;;;22.50;99.90;;;;;;4594129;19;19915;-61
2023/08/27 14:19:29;;;;;;;;;;;22.50;99.90;;;;;;4593135;19;19919;-60
2023/08/27 14:21:02;;;;;;;;;;;22.50;99.90;;;;;;4594079;19;20296;-60
2023/08/27 14:22:36;;;;;;;;;;;22.50;99.90;;;;;;4593774;19;19907;-60
2023/08/27 14:24:10;;;;;;;;;;;22.40;99.90;;;;;;4594015;19;19966;-60
2023/08/27 14:25:44;;;;;;;;;;;22.40;99.90;;;;;;4594030;19;19925;-61
2023/08/27 14:27:17;;;;;;;;;;;22.40;99.90;;;;;;4593965;19;20223;-60
2023/08/27 14:28:51;;;;;;;;;;;22.40;99.90;;;;;;4593477;19;20240;-60
2023/08/27 14:30:25;;;;;;;;;;;22.40;99.90;;;;;;4593899;19;19915;-60
2023/08/27 14:32:03;;;;;;;;;;;22.40;99.90;;;;;;4593864;19;19919;-60
2023/08/27 14:33:38;;;;;;;;;;;22.40;99.90;;;;;;4593855;19;19915;-60
2023/08/27 14:35:12;;;;;;;;;;;22.40;99.90;;;;;;4593790;19;19918;-60
2023/08/27 14:36:45;;;;;;;;;;;22.40;99.90;;;;;;4593791;19;19919;-61
2023/08/27 14:38:20;;;;;;;;;;;22.40;99.90;;;;;;4593788;19;19942;-60
2023/08/27 14:39:53;;;;;;;;;;;22.30;99.90;;;;;;4592628;19;19919;-60
2023/08/27 14:41:27;;;;;;;;;;;22.30;99.90;;;;;;4593752;19;19911;-60
2023/08/27 14:43:03;;;;;;;;;;;22.30;99.90;;;;;;4593084;19;20028;-60
2023/08/27 14:44:36;;;;;;;;;;;22.30;99.90;;;;;;4593629;19;19926;-60
2023/08/27 14:46:10;;;;;;;;;;;22.30;99.90;;;;;;4593598;19;19936;-60
2023/08/27 14:47:45;;;;;;;;;;;22.30;99.90;;;;;;4593546;19;19939;-60
2023/08/27 14:49:18;;;;;;;;;;;22.30;99.90;;;;;;4592786;19;20318;-60
2023/08/27 14:50:52;;;;;;;;;;;22.30;99.90;;;;;;4593495;19;19915;-61
2023/08/27 14:52:27;;;;;;;;;;;22.30;99.90;;;;;;4593499;19;19931;-61
2023/08/27 14:54:01;;;;;;;;;;;22.30;99.90;;;;;;4591923;19;19911;-60
2023/08/27 14:55:35;;;;;;;;;;;22.30;99.90;;;;;;4593375;19;20347;-60
2023/08/27 14:57:10;;;;;;;;;;;22.30;99.90;;;;;;4593370;19;19921;-60
2023/08/27 14:58:47;;;;;;;;;;;22.30;99.90;;;;;;4593002;19;19989;-60
2023/08/27 15:00:20;;;;;;;;;;;22.30;99.90;;;;;;4593366;19;19921;-60
2023/08/27 15:01:55;;;;;;;;;;;22.30;99.90;;;;;;4593291;19;20310;-60
2023/08/27 15:03:28;;;;;;;;;;;22.30;99.90;;;;;;4592445;19;19946;-60
2023/08/27 15:05:02;;;;;;;;;;;22.30;99.90;;;;;;4591925;19;19983;-60
2023/08/27 15:06:36;;;;;;;;;;;22.30;99.90;;;;;;4592842;19;19918;-60
2023/08/27 15:08:11;;;;;;;;;;;22.30;99.90;;;;;;4593190;19;19911;-60
2023/08/27 15:09:45;;;;;;;;;;;22.30;99.90;;;;;;4591883;19;19919;-60
2023/08/27 15:11:21;;;;;;;;;;;22.40;99.90;;;;;;4593123;19;19971;-60
2023/08/27 15:12:54;;;;;;;;;;;22.40;99.90;;;;;;4593088;19;20307;-60
2023/08/27 15:14:27;;;;;;;;;;;22.40;99.90;;;;;;4593126;19;19945;-60
2023/08/27 15:16:02;;;;;;;;;;;22.40;99.90;;;;;;4593022;19;19919;-60
2023/08/27 15:17:36;;;;;;;;;;;22.40;99.90;;;;;;4593044;19;19915;-60
2023/08/27 15:19:09;;;;;;;;;;;22.40;99.90;;;;;;4592398;19;19919;-60
2023/08/27 15:20:43;;;;;;;;;;;22.40;99.90;;;;;;4592995;19;19940;-60
2023/08/27 15:22:16;;;;;;;;;;;22.40;99.90;;;;;;4592948;19;19952;-60
2023/08/27 15:23:51;;;;;;;;;;;22.40;99.90;;;;;;4591790;19;19974;-60
2023/08/27 15:25:26;;;;;;;;;;;22.40;99.90;;;;;;4592939;19;19947;-60
2023/08/27 15:26:59;;;;;;;;;;;22.40;99.90;;;;;;4592870;19;19915;-60
2023/08/27 15:28:33;;;;;;;;;;;22.40;99.90;;;;;;4592611;19;19935;-60
2023/08/27 15:30:08;;;;;;;;;;;22.30;99.90;;;;;;4592864;19;19919;-60
2023/08/27 15:31:42;;;;;;;;;;;22.30;99.90;;;;;;4592805;19;19922;-60
2023/08/27 15:33:16;;;;;;;;;;;22.30;99.90;;;;;;4592782;19;19923;-60
2023/08/27 15:34:51;;;;;;;;;;;22.30;99.90;;;;;;4592671;19;19922;-60
2023/08/27 15:36:24;;;;;;;;;;;22.30;99.90;;;;;;4592720;19;20306;-60
2023/08/27 15:37:58;;;;;;;;;;;22.30;99.90;;;;;;4592649;19;19939;-60
2023/08/27 15:39:33;;;;;;;;;;;22.30;99.90;;;;;;4591765;19;19974;-60
2023/08/27 15:41:06;;;;;;;;;;;22.20;99.90;;;;;;4592610;19;19953;-60
2023/08/27 15:42:39;;;;;;;;;;;22.20;99.90;;;;;;4592269;19;19975;-60
2023/08/27 15:44:15;;;;;;;;;;;22.20;99.90;;;;;;4592505;19;19911;-60
2023/08/27 15:45:49;;;;;;;;;;;22.20;99.90;;;;;;4592573;19;19915;-60
2023/08/27 15:47:26;;;;;;;;;;;22.20;99.90;;;;;;4592529;19;19915;-60
2023/08/27 15:49:03;;;;;;;;;;;22.20;99.90;;;;;;4591920;19;19911;-60
2023/08/27 15:50:37;;;;;;;;;;;22.20;99.90;;;;;;4592577;19;19915;-60
2023/08/27 15:52:11;;;;;;;;;;;22.20;99.90;;;;;;4592612;19;19930;-60
2023/08/27 15:53:46;;;;;;;;;;;22.20;99.90;;;;;;4592430;19;20255;-60
2023/08/27 15:55:20;;;;;;;;;;;22.20;99.90;;;;;;4592364;19;19926;-60
2023/08/27 15:56:55;;;;;;;;;;;22.20;99.90;;;;;;4592329;19;19918;-60
2023/08/27 15:58:29;;;;;;;;;;;22.10;99.90;;;;;;4592126;19;19925;-60
2023/08/27 16:00:06;;;;;;;;;;;22.10;99.90;;;;;;4592294;19;19918;-61
2023/08/27 16:01:41;;;;;;;;;;;22.10;99.90;;;;;;4590979;19;19918;-60
2023/08/27 16:03:16;;;;;;;;;;;22.10;99.90;;;;;;4591205;19;19923;-60
2023/08/27 16:04:50;;;;;;;;;;;22.10;99.90;;;;;;4592156;19;19922;-60
2023/08/27 16:06:24;;;;;;;;;;;22.10;99.90;;;;;;4594491;19;19915;-60
2023/08/27 16:07:58;;;;;;;;;;;22.00;99.90;;;;;;4596826;19;19982;-60
2023/08/27 16:09:32;;;;;;;;;;;22.00;99.90;;;;;;4595098;19;19923;-60
2023/08/27 16:11:08;;;;;;;;;;;22.00;99.90;;;;;;4596728;19;19919;-61
2023/08/27 16:12:42;;;;;;;;;;;22.00;99.90;;;;;;4596804;19;19918;-60
2023/08/27 16:14:15;;;;;;;;;;;22.00;99.90;;;;;;4596671;19;19931;-60
2023/08/27 16:15:50;;;;;;;;;;;22.00;99.90;;;;;;4596662;19;20249;-60
2023/08/27 16:17:24;;;;;;;;;;;22.00;99.90;;;;;;4596653;19;19926;-60
2023/08/27 16:19:00;;;;;;;;;;;21.90;99.90;;;;;;4595844;19;19914;-61
2023/08/27 16:20:34;;;;;;;;;;;21.90;99.90;;;;;;4596606;19;19943;-60
2023/08/27 16:22:09;;;;;;;;;;;21.90;99.90;;;;;;4596553;19;19918;-60